createdAt,value
2023-02-17T00:00:13.628Z,99983.16
2023-02-17T00:00:45.738Z,99986.06
2023-02-17T00:01:21.002Z,99983.16
2023-02-17T00:01:55.757Z,99977.03
2023-02-17T00:02:28.084Z,99984.19
2023-02-17T00:03:00.445Z,99979.69
2023-02-17T00:03:35.144Z,99986.84
2023-02-17T00:04:07.293Z,99979.69
2023-02-17T00:04:42.006Z,99975.19
2023-02-17T00:05:14.244Z,99978.88
2023-02-17T00:05:46.336Z,99977.03
2023-02-17T00:06:23.761Z,99972.31
2023-02-17T00:06:56.584Z,99981.31
2023-02-17T00:07:31.646Z,99970.69
2023-02-17T00:08:06.401Z,99976.81
2023-02-17T00:08:38.698Z,99976.81
2023-02-17T00:09:13.443Z,99968.84
2023-02-17T00:09:45.514Z,99973.94
2023-02-17T00:10:20.581Z,99976.81
2023-02-17T00:10:59.736Z,99976.81
2023-02-17T00:11:31.977Z,99977.03
2023-02-17T00:12:07.285Z,99973.53
2023-02-17T00:12:39.403Z,99977.84
2023-02-17T00:13:11.577Z,99968.22
2023-02-17T00:13:46.347Z,99975.19
2023-02-17T00:14:18.959Z,99976.22
2023-02-17T00:14:53.639Z,99969.03
2023-02-17T00:15:25.769Z,99974.59
2023-02-17T00:15:58.107Z,99976.44
2023-02-17T00:16:32.900Z,99976.44
2023-02-17T00:17:04.960Z,99971.34
2023-02-17T00:17:37.080Z,99970.31
2023-02-17T00:18:09.154Z,99978.28
2023-02-17T00:18:43.818Z,99972.97
2023-02-17T00:19:25.587Z,99973.78
2023-02-17T00:19:57.695Z,99971.56
2023-02-17T00:20:32.448Z,99966.00
2023-02-17T00:21:15.830Z,99973.19
2023-02-17T00:21:48.056Z,99978.50
2023-02-17T00:22:22.756Z,99969.50
2023-02-17T00:22:54.925Z,99971.34
2023-02-17T00:23:27.049Z,99971.13
2023-02-17T00:24:02.635Z,99962.91
2023-02-17T00:24:37.903Z,99967.44
2023-02-17T00:25:10.025Z,99965.81
2023-02-17T00:25:47.380Z,99965.81
2023-02-17T00:26:20.324Z,99977.03
2023-02-17T00:26:52.487Z,99968.69
2023-02-17T00:27:27.313Z,99963.00
2023-02-17T00:27:59.396Z,99962.53
2023-02-17T00:28:31.567Z,99959.06
2023-02-17T00:29:06.450Z,99955.38
2023-02-17T00:29:38.878Z,99958.84
2023-02-17T00:30:11.669Z,99949.00
2023-02-17T00:30:46.351Z,99959.66
2023-02-17T00:31:20.758Z,99950.88
2023-02-17T00:31:56.431Z,99958.84
2023-02-17T00:32:28.881Z,99956.19
2023-02-17T00:33:01.892Z,99960.69
2023-02-17T00:33:36.659Z,99950.03
2023-02-17T00:34:10.513Z,99952.72
2023-02-17T00:34:42.598Z,99952.72
2023-02-17T00:35:17.546Z,99954.56
2023-02-17T00:35:49.784Z,99952.91
2023-02-17T00:36:22.163Z,99954.56
2023-02-17T00:36:57.065Z,99949.22
2023-02-17T00:37:29.156Z,99947.59
2023-02-17T00:38:01.255Z,99956.41
2023-02-17T00:38:36.324Z,99956.78
2023-02-17T00:39:08.799Z,99952.50
2023-02-17T00:39:41.074Z,99951.69
2023-02-17T00:40:16.545Z,99952.72
2023-02-17T00:40:51.212Z,99939.59
2023-02-17T00:41:24.919Z,99951.88
2023-02-17T00:41:59.597Z,99953.53
2023-02-17T00:42:34.611Z,99958.84
2023-02-17T00:43:06.804Z,99953.53
2023-02-17T00:43:41.550Z,99954.13
2023-02-17T00:44:17.725Z,99950.66
2023-02-17T00:44:49.825Z,99949.22
2023-02-17T00:45:24.611Z,99948.19
2023-02-17T00:45:57.063Z,99951.69
2023-02-17T00:46:31.785Z,99952.50
2023-02-17T00:47:03.955Z,99957.22
2023-02-17T00:47:36.034Z,99947.59
2023-02-17T00:48:10.913Z,99954.56
2023-02-17T00:48:44.141Z,99948.41
2023-02-17T00:49:19.856Z,99950.03
2023-02-17T00:49:54.719Z,99947.38
2023-02-17T00:50:26.845Z,99946.56
2023-02-17T00:50:58.987Z,99947.38
2023-02-17T00:51:34.669Z,99942.88
2023-02-17T00:52:09.064Z,99942.88
2023-02-17T00:52:41.637Z,99944.50
2023-02-17T00:53:16.412Z,99946.94
2023-02-17T00:53:48.795Z,99950.41
2023-02-17T00:54:21.286Z,99948.34
2023-02-17T00:54:55.991Z,99948.09
2023-02-17T00:55:28.205Z,99950.56
2023-02-17T00:56:03.818Z,99941.75
2023-02-17T00:56:38.661Z,99946.06
2023-02-17T00:57:11.531Z,99946.88
2023-02-17T00:57:43.622Z,99949.53
2023-02-17T00:58:18.868Z,99951.97
2023-02-17T00:58:51.053Z,99943.38
2023-02-17T00:59:23.204Z,99942.56
2023-02-17T00:59:55.337Z,99940.13
2023-02-17T01:00:30.038Z,99940.38
2023-02-17T01:01:02.335Z,99939.53
2023-02-17T01:01:34.629Z,99939.34
2023-02-17T01:02:09.380Z,99942.00
2023-02-17T01:02:41.748Z,99941.41
2023-02-17T01:03:13.901Z,99939.53
2023-02-17T01:03:48.638Z,99939.34
2023-02-17T01:04:20.740Z,99936.06
2023-02-17T01:04:53.977Z,99942.22
2023-02-17T01:05:28.796Z,99934.44
2023-02-17T01:06:07.062Z,99933.63
2023-02-17T01:06:40.838Z,99938.16
2023-02-17T01:07:15.500Z,99934.69
2023-02-17T01:07:47.604Z,99930.38
2023-02-17T01:08:19.768Z,99931.19
2023-02-17T01:08:54.889Z,99939.19
2023-02-17T01:09:27.092Z,99933.03
2023-02-17T01:09:59.208Z,99932.22
2023-02-17T01:10:33.972Z,99931.19
2023-02-17T01:11:16.582Z,99930.16
2023-02-17T01:11:48.677Z,99926.09
2023-02-17T01:12:23.478Z,99932.22
2023-02-17T01:12:57.064Z,99937.56
2023-02-17T01:13:29.175Z,99932.03
2023-02-17T01:14:06.368Z,99929.56
2023-02-17T01:14:38.603Z,99935.91
2023-02-17T01:15:11.309Z,99928.75
2023-02-17T01:15:49.241Z,99932.22
2023-02-17T01:16:24.191Z,99928.75
2023-02-17T01:16:56.299Z,99934.06
2023-02-17T01:17:31.073Z,99929.56
2023-02-17T01:18:03.447Z,99925.28
2023-02-17T01:18:35.551Z,99927.38
2023-02-17T01:19:13.969Z,99925.28
2023-02-17T01:19:46.025Z,99925.72
2023-02-17T01:20:18.656Z,99923.63
2023-02-17T01:20:53.946Z,99930.84
2023-02-17T01:21:28.776Z,99923.06
2023-02-17T01:22:01.052Z,99928.59
2023-02-17T01:22:36.973Z,99927.78
2023-02-17T01:23:10.461Z,99929.63
2023-02-17T01:23:42.625Z,99922.47
2023-02-17T01:24:17.334Z,99925.13
2023-02-17T01:24:49.464Z,99928.84
2023-02-17T01:25:21.552Z,99918.97
2023-02-17T01:25:54.053Z,99925.13
2023-02-17T01:26:35.746Z,99929.41
2023-02-17T01:27:07.832Z,99928.59
2023-02-17T01:27:40.009Z,99923.28
2023-02-17T01:28:19.388Z,99923.06
2023-02-17T01:28:53.044Z,99920.63
2023-02-17T01:29:27.799Z,99920.63
2023-02-17T01:29:59.916Z,99917.13
2023-02-17T01:30:32.501Z,99920.63
2023-02-17T01:31:08.789Z,99918.78
2023-02-17T01:31:41.176Z,99914.72
2023-02-17T01:32:16.932Z,99921.88
2023-02-17T01:32:51.689Z,99922.72
2023-02-17T01:33:23.812Z,99921.88
2023-02-17T01:33:57.897Z,99918.19
2023-02-17T01:34:32.578Z,99919.22
2023-02-17T01:35:05.112Z,99916.56
2023-02-17T01:35:40.443Z,99916.56
2023-02-17T01:36:17.673Z,99915.53
2023-02-17T01:36:49.797Z,99919.81
2023-02-17T01:37:22.006Z,99916.31
2023-02-17T01:37:54.247Z,99917.13
2023-02-17T01:38:31.497Z,99913.66
2023-02-17T01:39:03.724Z,99911.81
2023-02-17T01:39:36.073Z,99915.53
2023-02-17T01:40:11.905Z,99913.66
2023-02-17T01:40:47.539Z,99908.34
2023-02-17T01:41:22.026Z,99912.88
2023-02-17T01:41:59.576Z,99922.47
2023-02-17T01:42:31.660Z,99912.06
2023-02-17T01:43:04.101Z,99913.66
2023-02-17T01:43:39.189Z,99915.53
2023-02-17T01:44:15.435Z,99914.47
2023-02-17T01:45:17.421Z,99916.31
2023-02-17T01:45:57.924Z,99918.41
2023-02-17T01:46:32.885Z,99923.53
2023-02-17T01:47:07.646Z,99920.88
2023-02-17T01:47:40.186Z,99922.72
2023-02-17T01:48:16.346Z,99921.66
2023-02-17T01:48:53.856Z,99920.88
2023-02-17T01:49:33.028Z,99921.88
2023-02-17T01:50:06.692Z,99923.72
2023-02-17T01:50:46.350Z,99913.91
2023-02-17T01:51:22.627Z,99922.31
2023-02-17T01:52:01.276Z,99921.28
2023-02-17T01:52:36.103Z,99920.47
2023-02-17T01:53:11.505Z,99921.06
2023-02-17T01:53:48.876Z,99915.75
2023-02-17T01:54:27.423Z,99925.38
2023-02-17T01:55:03.675Z,99918.41
2023-02-17T01:55:38.321Z,99917.59
2023-02-17T01:56:14.898Z,99922.91
2023-02-17T01:56:50.448Z,99913.31
2023-02-17T01:57:30.524Z,99913.31
2023-02-17T01:58:04.757Z,99918.06
2023-02-17T01:58:44.194Z,99912.72
2023-02-17T01:59:19.135Z,99914.78
2023-02-17T01:59:56.892Z,99916.41
2023-02-17T02:00:32.299Z,99916.41
2023-02-17T02:01:06.486Z,99913.53
2023-02-17T02:01:42.984Z,99915.16
2023-02-17T02:02:16.125Z,99910.63
2023-02-17T02:02:50.442Z,99918.41
2023-02-17T02:03:29.306Z,99914.94
2023-02-17T02:04:04.983Z,99912.28
2023-02-17T02:04:43.677Z,99915.75
2023-02-17T02:05:18.229Z,99914.94
2023-02-17T02:05:50.976Z,99913.91
2023-02-17T02:06:28.932Z,99917.59
2023-02-17T02:07:01.245Z,99918.63
2023-02-17T02:07:36.699Z,99911.66
2023-02-17T02:08:13.080Z,99918.88
2023-02-17T02:08:53.208Z,99924.41
2023-02-17T02:09:31.716Z,99921.38
2023-02-17T02:10:06.721Z,99924.03
2023-02-17T02:10:40.656Z,99923.78
2023-02-17T02:11:15.393Z,99920.09
2023-02-17T02:11:49.358Z,99927.06
2023-02-17T02:12:26.030Z,99923.38
2023-02-17T02:13:01.101Z,99924.19
2023-02-17T02:13:33.549Z,99926.03
2023-02-17T02:14:09.216Z,99918.63
2023-02-17T02:14:44.337Z,99923.94
2023-02-17T02:15:20.733Z,99928.25
2023-02-17T02:16:01.643Z,99923.94
2023-02-17T02:16:45.467Z,99926.59
2023-02-17T02:17:27.712Z,99923.38
2023-02-17T02:18:15.546Z,99920.94
2023-02-17T02:18:59.291Z,99922.56
2023-02-17T02:19:57.344Z,99920.94
2023-02-17T02:20:59.706Z,99919.28
2023-02-17T02:22:11.454Z,99919.53
2023-02-17T02:23:08.643Z,99915.25
2023-02-17T02:24:13.828Z,99915.25
2023-02-17T02:25:02.501Z,99910.94
2023-02-17T02:26:01.400Z,99911.16
2023-02-17T02:26:59.216Z,99904.44
2023-02-17T02:27:49.577Z,99903.84
2023-02-17T02:28:37.155Z,99905.72
2023-02-17T02:29:49.284Z,99903.47
2023-02-17T02:30:40.996Z,99905.31
2023-02-17T02:31:31.569Z,99906.97
2023-02-17T02:32:10.159Z,99909.47
2023-02-17T02:33:06.228Z,99904.75
2023-02-17T02:33:43.757Z,99910.66
2023-02-17T02:34:20.951Z,99904.91
2023-02-17T02:35:00.546Z,99904.44
2023-02-17T02:35:41.982Z,99902.59
2023-02-17T02:36:22.878Z,99901.56
2023-02-17T02:37:00.449Z,99905.84
2023-02-17T02:37:37.097Z,99902.97
2023-02-17T02:38:17.406Z,99901.94
2023-02-17T02:38:53.226Z,99902.59
2023-02-17T02:39:32.906Z,99904.22
2023-02-17T02:40:11.927Z,99905.63
2023-02-17T02:40:47.491Z,99899.28
2023-02-17T02:41:26.750Z,99896.38
2023-02-17T02:42:03.254Z,99907.84
2023-02-17T02:42:35.760Z,99898.81
2023-02-17T02:43:08.364Z,99902.09
2023-02-17T02:43:44.463Z,99906.13
2023-02-17T02:44:19.966Z,99902.44
2023-02-17T02:44:52.066Z,99903.25
2023-02-17T02:45:26.034Z,99907.56
2023-02-17T02:46:01.092Z,99904.91
2023-02-17T02:46:33.209Z,99903.25
2023-02-17T02:47:27.456Z,99909.16
2023-02-17T02:48:05.030Z,99903.25
2023-02-17T02:48:38.115Z,99904.91
2023-02-17T02:49:10.534Z,99906.50
2023-02-17T02:49:45.424Z,99905.47
2023-02-17T02:50:21.636Z,99904.44
2023-02-17T02:51:05.962Z,99908.94
2023-02-17T02:51:49.821Z,99903.00
2023-02-17T02:52:32.145Z,99909.41
2023-02-17T02:53:33.812Z,99897.78
2023-02-17T02:54:32.681Z,99903.13
2023-02-17T02:55:12.392Z,99905.97
2023-02-17T02:55:55.715Z,99915.38
2023-02-17T02:56:42.684Z,99902.09
2023-02-17T02:57:25.000Z,99912.72
2023-02-17T02:58:06.171Z,99916.22
2023-02-17T02:58:47.891Z,99914.31
2023-02-17T02:59:37.308Z,99915.38
2023-02-17T03:00:20.859Z,99916.41
2023-02-17T03:01:01.948Z,99916.41
2023-02-17T03:01:44.141Z,99917.44
2023-02-17T03:02:27.397Z,99912.13
2023-02-17T03:03:09.561Z,99918.47
2023-02-17T03:03:47.407Z,99911.31
2023-02-17T03:04:31.915Z,99921.75
2023-02-17T03:05:12.283Z,99925.44
2023-02-17T03:05:54.471Z,99923.59
2023-02-17T03:06:33.365Z,99918.25
2023-02-17T03:07:11.551Z,99923.38
2023-02-17T03:07:53.773Z,99919.06
2023-02-17T03:08:33.586Z,99922.78
2023-02-17T03:09:09.315Z,99925.44
2023-02-17T03:09:44.441Z,99921.94
2023-02-17T03:10:18.703Z,99920.31
2023-02-17T03:10:53.352Z,99922.78
2023-02-17T03:11:34.987Z,99918.47
2023-02-17T03:12:08.768Z,99923.78
2023-02-17T03:12:43.780Z,99923.59
2023-02-17T03:13:18.155Z,99922.56
2023-02-17T03:13:50.325Z,99920.72
2023-02-17T03:14:23.312Z,99927.63
2023-02-17T03:15:03.020Z,99926.59
2023-02-17T03:15:35.816Z,99929.50
2023-02-17T03:16:09.039Z,99932.97
2023-02-17T03:16:43.081Z,99929.28
2023-02-17T03:17:17.843Z,99927.41
2023-02-17T03:17:56.996Z,99927.63
2023-02-17T03:18:32.362Z,99928.44
2023-02-17T03:19:07.985Z,99932.97
2023-02-17T03:19:40.184Z,99937.25
2023-02-17T03:20:14.118Z,99935.63
2023-02-17T03:20:54.111Z,99931.13
2023-02-17T03:21:31.573Z,99932.38
2023-02-17T03:22:09.928Z,99925.22
2023-02-17T03:22:47.875Z,99925.44
2023-02-17T03:23:20.968Z,99923.78
2023-02-17T03:23:53.617Z,99930.97
2023-02-17T03:24:28.839Z,99916.63
2023-02-17T03:25:01.404Z,99929.94
2023-02-17T03:25:33.614Z,99929.94
2023-02-17T03:26:08.706Z,99929.94
2023-02-17T03:26:40.923Z,99929.13
2023-02-17T03:27:13.284Z,99926.47
2023-02-17T03:27:48.008Z,99929.72
2023-02-17T03:28:20.450Z,99928.09
2023-02-17T03:28:53.070Z,99930.75
2023-02-17T03:29:27.759Z,99930.75
2023-02-17T03:29:59.874Z,99929.13
2023-02-17T03:30:32.160Z,99935.25
2023-02-17T03:31:07.321Z,99937.72
2023-02-17T03:31:40.703Z,99937.91
2023-02-17T03:32:13.032Z,99932.38
2023-02-17T03:32:47.919Z,99933.19
2023-02-17T03:33:20.033Z,99938.53
2023-02-17T03:33:54.832Z,99932.16
2023-02-17T03:34:29.712Z,99928.69
2023-02-17T03:35:02.848Z,99932.38
2023-02-17T03:35:34.939Z,99923.59
2023-02-17T03:36:10.500Z,99930.75
2023-02-17T03:36:42.590Z,99930.97
2023-02-17T03:37:14.856Z,99928.09
2023-02-17T03:37:49.550Z,99929.72
2023-02-17T03:38:21.636Z,99930.19
2023-02-17T03:38:53.790Z,99929.38
2023-02-17T03:39:25.867Z,99930.19
2023-02-17T03:40:00.667Z,99930.19
2023-02-17T03:40:32.809Z,99940.81
2023-02-17T03:41:05.116Z,99938.94
2023-02-17T03:41:37.235Z,99929.13
2023-02-17T03:42:11.876Z,99927.28
2023-02-17T03:42:44.044Z,99933.63
2023-02-17T03:43:17.957Z,99927.50
2023-02-17T03:43:50.453Z,99929.13
2023-02-17T03:44:25.170Z,99930.19
2023-02-17T03:44:57.252Z,99928.53
2023-02-17T03:45:29.514Z,99934.91
2023-02-17T03:46:01.782Z,99930.59
2023-02-17T03:46:36.517Z,99929.22
2023-02-17T03:47:08.773Z,99929.22
2023-02-17T03:47:41.259Z,99936.97
2023-02-17T03:48:13.442Z,99930.25
2023-02-17T03:48:48.198Z,99928.38
2023-02-17T03:49:22.987Z,99927.56
2023-02-17T03:49:55.238Z,99941.69
2023-02-17T03:50:29.917Z,99930.84
2023-02-17T03:51:10.972Z,99933.72
2023-02-17T03:51:45.618Z,99930.25
2023-02-17T03:52:18.436Z,99931.25
2023-02-17T03:52:50.524Z,99939.03
2023-02-17T03:53:25.174Z,99942.50
2023-02-17T03:53:57.427Z,99939.03
2023-02-17T03:54:29.643Z,99939.03
2023-02-17T03:55:04.314Z,99940.44
2023-02-17T03:55:36.381Z,99935.09
2023-02-17T03:56:08.766Z,99940.22
2023-02-17T03:56:40.962Z,99931.22
2023-02-17T03:57:15.640Z,99935.50
2023-02-17T03:57:47.745Z,99939.75
2023-02-17T03:58:19.796Z,99939.75
2023-02-17T03:58:54.472Z,99932.38
2023-02-17T03:59:27.244Z,99937.72
2023-02-17T03:59:59.357Z,99936.06
2023-02-17T04:00:34.090Z,99927.88
2023-02-17T04:01:06.801Z,99937.72
2023-02-17T04:01:39.012Z,99937.72
2023-02-17T04:02:13.775Z,99936.88
2023-02-17T04:02:45.895Z,99932.84
2023-02-17T04:03:18.349Z,99937.34
2023-02-17T04:03:53.299Z,99937.34
2023-02-17T04:04:28.090Z,99942.66
2023-02-17T04:05:00.369Z,99936.53
2023-02-17T04:05:35.025Z,99938.38
2023-02-17T04:06:08.488Z,99939.19
2023-02-17T04:06:43.429Z,99934.06
2023-02-17T04:07:15.574Z,99933.25
2023-02-17T04:07:48.129Z,99934.06
2023-02-17T04:08:22.999Z,99934.91
2023-02-17T04:08:55.109Z,99930.59
2023-02-17T04:09:27.263Z,99935.72
2023-02-17T04:10:04.919Z,99938.38
2023-02-17T04:10:37.699Z,99934.31
2023-02-17T04:11:10.445Z,99938.59
2023-02-17T04:11:45.676Z,99937.78
2023-02-17T04:12:17.774Z,99947.63
2023-02-17T04:12:49.853Z,99937.78
2023-02-17T04:13:24.694Z,99939.41
2023-02-17T04:13:56.842Z,99939.66
2023-02-17T04:14:28.897Z,99936.97
2023-02-17T04:15:03.534Z,99938.59
2023-02-17T04:15:35.810Z,99934.31
2023-02-17T04:16:09.940Z,99938.81
2023-02-17T04:16:45.344Z,99940.66
2023-02-17T04:17:17.481Z,99934.53
2023-02-17T04:17:49.545Z,99942.31
2023-02-17T04:18:25.625Z,99932.44
2023-02-17T04:18:57.755Z,99936.97
2023-02-17T04:19:34.994Z,99935.09
2023-02-17T04:20:08.271Z,99936.97
2023-02-17T04:20:40.536Z,99936.97
2023-02-17T04:21:15.303Z,99934.06
2023-02-17T04:21:47.452Z,99930.38
2023-02-17T04:22:19.540Z,99934.69
2023-02-17T04:22:54.238Z,99938.16
2023-02-17T04:23:26.446Z,99932.84
2023-02-17T04:24:00.782Z,99930.19
2023-02-17T04:24:35.504Z,99931.22
2023-02-17T04:25:07.822Z,99934.69
2023-02-17T04:25:40.069Z,99928.53
2023-02-17T04:26:16.106Z,99929.56
2023-02-17T04:26:48.188Z,99927.13
2023-02-17T04:27:20.318Z,99943.91
2023-02-17T04:27:55.003Z,99935.72
2023-02-17T04:28:27.224Z,99934.06
2023-02-17T04:28:59.326Z,99944.50
2023-02-17T04:29:34.065Z,99932.22
2023-02-17T04:30:07.838Z,99945.53
2023-02-17T04:30:40.603Z,99935.91
2023-02-17T04:31:15.552Z,99930.38
2023-02-17T04:31:47.798Z,99941.03
2023-02-17T04:32:20.000Z,99936.53
2023-02-17T04:32:54.784Z,99941.03
2023-02-17T04:33:27.424Z,99935.72
2023-02-17T04:33:59.532Z,99934.91
2023-02-17T04:34:36.779Z,99932.22
2023-02-17T04:35:08.864Z,99941.47
2023-02-17T04:35:41.204Z,99934.91
2023-02-17T04:36:16.048Z,99950.41
2023-02-17T04:36:50.767Z,99935.91
2023-02-17T04:37:22.865Z,99937.78
2023-02-17T04:37:55.508Z,99939.66
2023-02-17T04:38:31.420Z,99937.56
2023-02-17T04:39:03.655Z,99938.59
2023-02-17T04:39:35.746Z,99942.66
2023-02-17T04:40:12.090Z,99939.75
2023-02-17T04:40:44.206Z,99939.75
2023-02-17T04:41:16.475Z,99941.41
2023-02-17T04:41:51.154Z,99943.84
2023-02-17T04:42:23.324Z,99936.88
2023-02-17T04:42:55.406Z,99938.53
2023-02-17T04:43:31.009Z,99938.53
2023-02-17T04:44:03.251Z,99942.00
2023-02-17T04:44:35.311Z,99943.03
2023-02-17T04:45:11.268Z,99942.81
2023-02-17T04:45:43.401Z,99947.53
2023-02-17T04:46:15.519Z,99936.28
2023-02-17T04:46:50.424Z,99941.03
2023-02-17T04:47:23.029Z,99942.31
2023-02-17T04:47:55.112Z,99946.56
2023-02-17T04:48:29.786Z,99947.38
2023-02-17T04:49:01.882Z,99948.19
2023-02-17T04:49:36.710Z,99942.66
2023-02-17T04:50:13.876Z,99937.09
2023-02-17T04:50:46.115Z,99941.84
2023-02-17T04:51:18.242Z,99947.75
2023-02-17T04:51:52.921Z,99949.38
2023-02-17T04:52:25.194Z,99952.03
2023-02-17T04:52:57.264Z,99952.66
2023-02-17T04:53:31.941Z,99950.56
2023-02-17T04:54:04.222Z,99954.25
2023-02-17T04:54:36.718Z,99947.69
2023-02-17T04:55:09.253Z,99945.59
2023-02-17T04:55:44.355Z,99951.53
2023-02-17T04:56:16.478Z,99947.03
2023-02-17T04:56:48.631Z,99947.59
2023-02-17T04:57:23.334Z,99942.28
2023-02-17T04:57:55.776Z,99952.72
2023-02-17T04:58:27.998Z,99956.19
2023-02-17T04:59:02.705Z,99943.91
2023-02-17T04:59:34.793Z,99951.88
2023-02-17T05:00:08.796Z,99946.56
2023-02-17T05:00:43.521Z,99951.06
2023-02-17T05:01:15.622Z,99952.91
2023-02-17T05:01:47.795Z,99944.94
2023-02-17T05:02:22.534Z,99947.84
2023-02-17T05:02:54.636Z,99950.13
2023-02-17T05:03:27.181Z,99961.56
2023-02-17T05:04:01.844Z,99944.81
2023-02-17T05:04:38.893Z,99947.47
2023-02-17T05:05:11.013Z,99952.81
2023-02-17T05:05:45.758Z,99952.56
2023-02-17T05:06:17.973Z,99949.06
2023-02-17T05:06:50.059Z,99956.03
2023-02-17T05:07:25.295Z,99952.34
2023-02-17T05:07:57.389Z,99952.56
2023-02-17T05:08:29.483Z,99952.34
2023-02-17T05:09:04.214Z,99952.34
2023-02-17T05:09:36.427Z,99950.72
2023-02-17T05:10:09.551Z,99953.97
2023-02-17T05:10:44.236Z,99953.97
2023-02-17T05:11:16.412Z,99959.31
2023-02-17T05:11:49.004Z,99956.63
2023-02-17T05:12:21.111Z,99952.13
2023-02-17T05:12:55.773Z,99966.22
2023-02-17T05:13:27.865Z,99960.91
2023-02-17T05:14:02.548Z,99961.72
2023-02-17T05:14:34.678Z,99965.44
2023-02-17T05:15:08.321Z,99966.22
2023-02-17T05:15:43.095Z,99971.56
2023-02-17T05:16:15.230Z,99964.38
2023-02-17T05:16:47.445Z,99960.91
2023-02-17T05:17:22.169Z,99968.69
2023-02-17T05:17:54.311Z,99965.19
2023-02-17T05:18:26.399Z,99961.50
2023-02-17T05:19:01.061Z,99963.34
2023-02-17T05:19:33.353Z,99965.81
2023-02-17T05:20:11.284Z,99960.47
2023-02-17T05:20:45.944Z,99962.13
2023-02-17T05:21:18.084Z,99958.41
2023-02-17T05:21:51.461Z,99961.88
2023-02-17T05:22:26.200Z,99962.13
2023-02-17T05:22:58.346Z,99961.31
2023-02-17T05:23:30.564Z,99966.00
2023-02-17T05:24:05.247Z,99969.50
2023-02-17T05:24:38.882Z,99970.31
2023-02-17T05:25:11.120Z,99972.97
2023-02-17T05:25:45.997Z,99967.88
2023-02-17T05:26:18.073Z,99973.19
2023-02-17T05:26:50.346Z,99971.56
2023-02-17T05:27:25.166Z,99976.88
2023-02-17T05:27:57.562Z,99973.44
2023-02-17T05:28:29.744Z,99967.28
2023-02-17T05:29:04.428Z,99969.13
2023-02-17T05:29:36.709Z,99968.31
2023-02-17T05:30:12.138Z,99967.03
2023-02-17T05:30:44.493Z,99968.88
2023-02-17T05:31:20.463Z,99977.47
2023-02-17T05:31:52.705Z,99963.81
2023-02-17T05:32:25.191Z,99969.34
2023-02-17T05:33:00.939Z,99970.16
2023-02-17T05:33:33.072Z,99973.63
2023-02-17T05:34:05.340Z,99965.66
2023-02-17T05:34:37.702Z,99969.72
2023-02-17T05:35:15.120Z,99970.53
2023-02-17T05:35:47.312Z,99974.81
2023-02-17T05:36:19.429Z,99969.72
2023-02-17T05:36:54.192Z,99976.44
2023-02-17T05:37:27.211Z,99979.94
2023-02-17T05:38:01.896Z,99968.22
2023-02-17T05:38:34.157Z,99986.84
2023-02-17T05:39:06.231Z,99984.19
2023-02-17T05:39:41.176Z,99983.41
2023-02-17T05:40:13.325Z,99975.63
2023-02-17T05:40:47.977Z,99982.59
2023-02-17T05:41:20.326Z,99984.44
2023-02-17T05:41:52.483Z,99985.47
2023-02-17T05:42:28.947Z,99985.47
2023-02-17T05:43:01.104Z,99986.72
2023-02-17T05:43:33.877Z,99982.19
2023-02-17T05:44:08.547Z,99985.91
2023-02-17T05:44:40.681Z,99993.09
2023-02-17T05:45:12.850Z,99986.94
2023-02-17T05:45:47.489Z,99990.44
2023-02-17T05:46:19.590Z,99996.56
2023-02-17T05:46:51.792Z,99993.91
2023-02-17T05:47:27.769Z,99994.72
2023-02-17T05:47:59.953Z,99986.50
2023-02-17T05:48:32.488Z,99996.13
2023-02-17T05:49:07.214Z,99998.56
2023-02-17T05:49:39.307Z,100000.41
2023-02-17T05:50:14.183Z,100003.66
2023-02-17T05:50:48.993Z,100005.28
2023-02-17T05:51:21.166Z,100003.44
2023-02-17T05:51:53.314Z,100009.34
2023-02-17T05:52:28.118Z,100005.66
2023-02-17T05:53:00.241Z,100009.94
2023-02-17T05:53:32.603Z,99999.91
2023-02-17T05:54:07.711Z,100003.34
2023-02-17T05:54:39.779Z,100002.56
2023-02-17T05:55:11.866Z,100004.16
2023-02-17T05:55:48.773Z,100004.97
2023-02-17T05:56:21.056Z,99997.25
2023-02-17T05:56:55.730Z,99999.91
2023-02-17T05:57:28.219Z,100006.81
2023-02-17T05:58:00.333Z,100003.34
2023-02-17T05:58:35.044Z,99992.69
2023-02-17T05:59:07.198Z,99994.34
2023-02-17T05:59:39.456Z,99995.34
2023-02-17T06:00:15.649Z,99999.66
2023-02-17T06:00:48.009Z,99997.00
2023-02-17T06:01:20.537Z,99995.97
2023-02-17T06:01:55.293Z,100008.25
2023-02-17T06:02:27.372Z,100004.56
2023-02-17T06:02:59.496Z,100002.69
2023-02-17T06:03:34.166Z,100012.31
2023-02-17T06:04:06.338Z,100004.31
2023-02-17T06:04:38.811Z,100011.47
2023-02-17T06:05:16.169Z,100005.94
2023-02-17T06:05:48.282Z,100013.13
2023-02-17T06:06:20.561Z,100011.28
2023-02-17T06:06:55.412Z,100006.97
2023-02-17T06:07:27.637Z,100008.81
2023-02-17T06:07:59.807Z,100012.31
2023-02-17T06:08:34.524Z,100006.97
2023-02-17T06:09:06.632Z,100014.16
2023-02-17T06:09:38.813Z,100010.66
2023-02-17T06:10:13.831Z,100007.22
2023-02-17T06:10:45.894Z,100009.88
2023-02-17T06:11:18.163Z,100011.94
2023-02-17T06:11:50.256Z,100016.25
2023-02-17T06:12:24.905Z,100018.91
2023-02-17T06:12:57.065Z,100020.53
2023-02-17T06:13:29.195Z,100012.53
2023-02-17T06:14:03.902Z,100022.13
2023-02-17T06:14:35.964Z,100022.13
2023-02-17T06:15:08.586Z,100021.09
2023-02-17T06:15:43.735Z,100016.81
2023-02-17T06:16:15.898Z,100016.81
2023-02-17T06:16:48.058Z,100028.53
2023-02-17T06:17:22.722Z,100017.25
2023-02-17T06:17:54.817Z,100021.56
2023-02-17T06:18:29.586Z,100024.22
2023-02-17T06:19:02.688Z,100026.88
2023-02-17T06:19:34.829Z,100026.88
2023-02-17T06:20:11.873Z,100022.59
2023-02-17T06:20:47.066Z,100020.97
2023-02-17T06:21:19.247Z,100026.28
2023-02-17T06:21:53.942Z,100025.47
2023-02-17T06:22:26.092Z,100027.56
2023-02-17T06:22:58.159Z,100026.72
2023-02-17T06:23:32.872Z,100029.84
2023-02-17T06:24:05.756Z,100032.50
2023-02-17T06:24:37.855Z,100030.06
2023-02-17T06:25:12.846Z,100023.09
2023-02-17T06:25:45.001Z,100026.78
2023-02-17T06:26:18.634Z,100023.91
2023-02-17T06:26:53.620Z,100023.34
2023-02-17T06:27:25.933Z,100024.94
2023-02-17T06:27:58.065Z,100032.94
2023-02-17T06:28:34.801Z,100028.22
2023-02-17T06:29:07.521Z,100030.06
2023-02-17T06:29:39.956Z,100030.88
2023-02-17T06:30:17.655Z,100027.97
2023-02-17T06:30:49.838Z,100034.94
2023-02-17T06:31:22.278Z,100033.09
2023-02-17T06:31:57.283Z,100027.56
2023-02-17T06:32:29.502Z,100036.34
2023-02-17T06:33:01.601Z,100033.69
2023-02-17T06:33:36.274Z,100033.44
2023-02-17T06:34:08.434Z,100032.41
2023-02-17T06:34:40.511Z,100034.06
2023-02-17T06:35:15.344Z,100029.56
2023-02-17T06:35:52.442Z,100035.91
2023-02-17T06:36:25.064Z,100030.78
2023-02-17T06:36:59.771Z,100035.09
2023-02-17T06:37:31.859Z,100034.06
2023-02-17T06:38:04.166Z,100041.22
2023-02-17T06:38:38.953Z,100039.38
2023-02-17T06:39:11.070Z,100031.59
2023-02-17T06:39:43.198Z,100041.44
2023-02-17T06:40:18.799Z,100039.84
2023-02-17T06:40:50.986Z,100045.56
2023-02-17T06:41:25.693Z,100035.16
2023-02-17T06:41:58.004Z,100032.94
2023-02-17T06:42:30.081Z,100044.63
2023-02-17T06:43:04.779Z,100051.00
2023-02-17T06:43:37.097Z,100038.09
2023-02-17T06:44:09.165Z,100048.75
2023-02-17T06:44:43.862Z,100050.63
2023-02-17T06:45:16.421Z,100045.50
2023-02-17T06:45:51.140Z,100043.88
2023-02-17T06:46:23.264Z,100044.91
2023-02-17T06:46:55.449Z,100048.38
2023-02-17T06:47:30.504Z,100049.41
2023-02-17T06:48:02.596Z,100053.94